createdAt,value
2023-04-09T00:00:15.541Z,66.08
2023-04-09T00:05:15.623Z,65.63
2023-04-09T00:10:14.391Z,66.23
2023-04-09T00:15:27.850Z,66.27
2023-04-09T00:20:29.256Z,66.45
2023-04-09T00:25:28.850Z,66.96
2023-04-09T00:30:29.735Z,66.79
2023-04-09T00:35:28.502Z,66.54
2023-04-09T00:40:27.325Z,66.19
2023-04-09T00:45:26.212Z,67.85
2023-04-09T00:50:26.638Z,67.28
2023-04-09T00:55:26.383Z,66.82
2023-04-09T01:00:25.242Z,66.89
2023-04-09T01:05:25.548Z,66.53
2023-04-09T01:10:37.030Z,66.28
2023-04-09T01:15:41.447Z,66.41
2023-04-09T01:20:44.978Z,67.17
2023-04-09T01:26:00.036Z,67.26
2023-04-09T01:31:05.518Z,67.60
2023-04-09T01:36:07.407Z,68.67
2023-04-09T01:41:08.882Z,67.98
2023-04-09T01:46:10.792Z,67.64
2023-04-09T01:51:09.730Z,67.30
2023-04-09T01:56:08.797Z,66.67
2023-04-09T02:01:24.418Z,66.61
2023-04-09T02:06:32.170Z,66.64
2023-04-09T02:11:33.206Z,66.02
2023-04-09T02:16:34.167Z,65.80
2023-04-09T02:21:33.333Z,65.73
2023-04-09T02:26:32.368Z,65.63
2023-04-09T02:31:31.177Z,65.97
2023-04-09T02:36:31.411Z,65.79
2023-04-09T02:41:30.163Z,65.48
2023-04-09T02:46:29.138Z,65.35
2023-04-09T02:51:28.134Z,65.30
2023-04-09T02:56:28.292Z,65.57
2023-04-09T03:01:27.107Z,65.46
2023-04-09T03:06:26.722Z,65.38
2023-04-09T03:11:25.497Z,65.81
2023-04-09T03:16:27.325Z,65.44
2023-04-09T03:21:27.134Z,65.91
2023-04-09T03:26:25.875Z,66.52
2023-04-09T03:31:24.723Z,66.34
2023-04-09T03:36:25.035Z,66.39
2023-04-09T03:41:30.779Z,66.34
2023-04-09T03:46:32.596Z,67.04
2023-04-09T03:51:34.544Z,67.23
2023-04-09T03:56:37.188Z,67.12
2023-04-09T04:01:39.963Z,67.08
2023-04-09T04:06:40.369Z,66.68
2023-04-09T04:11:54.039Z,66.81
2023-04-09T04:16:54.649Z,66.61
2023-04-09T04:21:59.146Z,66.28
2023-04-09T04:26:58.295Z,66.33
2023-04-09T04:32:03.653Z,66.09
2023-04-09T04:37:09.296Z,66.01
2023-04-09T04:42:08.850Z,65.80
2023-04-09T04:47:07.953Z,65.63
2023-04-09T04:52:08.712Z,66.02
2023-04-09T04:57:10.141Z,65.82
2023-04-09T05:02:12.225Z,65.95
2023-04-09T05:07:23.819Z,65.87
2023-04-09T05:12:26.836Z,66.25
2023-04-09T05:17:26.194Z,65.96
2023-04-09T05:22:27.285Z,65.94
2023-04-09T05:27:27.730Z,65.60
2023-04-09T05:32:32.109Z,65.30
2023-04-09T05:37:33.553Z,64.73
2023-04-09T05:42:32.614Z,64.60
2023-04-09T05:47:38.417Z,64.97
2023-04-09T05:52:47.253Z,64.44
2023-04-09T05:57:47.616Z,64.15
2023-04-09T06:02:46.902Z,64.04
2023-04-09T06:07:47.316Z,63.60
2023-04-09T06:12:46.441Z,62.94
2023-04-09T06:17:45.521Z,62.94
2023-04-09T06:22:44.632Z,62.79
2023-04-09T06:27:44.853Z,62.61
2023-04-09T06:32:53.796Z,63.16
2023-04-09T06:37:53.974Z,62.96
2023-04-09T06:42:54.268Z,64.65
2023-04-09T06:47:59.971Z,64.52
2023-04-09T06:52:58.873Z,65.26
2023-04-09T06:57:59.080Z,65.16
2023-04-09T07:02:58.115Z,65.88
2023-04-09T07:07:57.143Z,63.75
2023-04-09T07:12:56.138Z,62.61
2023-04-09T07:17:57.973Z,62.40
2023-04-09T07:22:57.030Z,61.20
2023-04-09T07:27:57.638Z,60.51
2023-04-09T07:32:58.007Z,60.73
2023-04-09T07:37:57.381Z,59.68
2023-04-09T07:42:56.149Z,56.95
2023-04-09T07:47:55.022Z,55.91
2023-04-09T07:52:58.225Z,55.62
2023-04-09T07:58:07.200Z,54.03
2023-04-09T08:03:06.577Z,50.24
2023-04-09T08:08:07.355Z,49.97
2023-04-09T08:13:06.207Z,48.89
2023-04-09T08:18:05.832Z,47.60
2023-04-09T08:23:06.069Z,46.59
2023-04-09T08:28:05.649Z,46.66
2023-04-09T08:33:04.631Z,45.75
2023-04-09T08:38:03.357Z,44.71
2023-04-09T08:43:06.807Z,43.85
2023-04-09T08:48:07.065Z,42.06
2023-04-09T08:53:07.386Z,41.32
2023-04-09T08:58:09.772Z,38.92
2023-04-09T09:03:10.894Z,37.36
2023-04-09T09:08:10.824Z,35.94
2023-04-09T09:13:20.235Z,34.22
2023-04-09T09:18:19.981Z,32.19
2023-04-09T09:23:35.605Z,32.00
2023-04-09T09:28:37.661Z,29.38
2023-04-09T09:33:36.836Z,27.74
2023-04-09T09:38:35.598Z,25.78
2023-04-09T09:43:42.602Z,25.58
2023-04-09T09:48:41.646Z,25.55
2023-04-09T09:53:42.466Z,24.64
2023-04-09T10:03:46.891Z,23.93
2023-04-09T10:08:47.440Z,24.21
2023-04-09T10:13:53.768Z,25.13
2023-04-09T10:18:54.893Z,24.89
2023-04-09T10:23:54.316Z,23.69
2023-04-09T10:29:08.264Z,22.73
2023-04-09T10:34:08.228Z,23.53
2023-04-09T10:39:15.154Z,23.13
2023-04-09T10:44:33.147Z,23.35
2023-04-09T10:49:38.358Z,24.33
2023-04-09T10:54:47.264Z,24.01
2023-04-09T10:59:49.053Z,24.03
2023-04-09T11:05:00.736Z,23.72
2023-04-09T11:09:59.350Z,22.69
2023-04-09T11:15:00.599Z,22.30
2023-04-09T11:19:59.270Z,23.83
2023-04-09T11:24:58.007Z,23.02
2023-04-09T11:29:56.798Z,23.56
2023-04-09T11:34:57.290Z,22.97
2023-04-09T11:39:57.975Z,23.23
2023-04-09T11:44:57.266Z,22.87
2023-04-09T11:49:57.481Z,21.88
2023-04-09T11:54:56.215Z,21.89
2023-04-09T11:59:55.031Z,22.44
2023-04-09T12:04:53.917Z,22.56
2023-04-09T12:09:54.154Z,22.55
2023-04-09T12:14:54.022Z,23.51
2023-04-09T12:19:52.869Z,22.69
2023-04-09T12:24:51.842Z,22.13
2023-04-09T12:29:51.929Z,22.73
2023-04-09T12:34:50.877Z,22.95
2023-04-09T12:39:49.839Z,24.06
2023-04-09T12:44:48.810Z,23.63
2023-04-09T12:49:50.255Z,23.15
2023-04-09T12:54:49.155Z,23.22
2023-04-09T12:59:47.971Z,23.25
2023-04-09T13:04:49.862Z,24.28
2023-04-09T13:09:48.697Z,24.40
2023-04-09T13:14:49.014Z,24.75
2023-04-09T13:19:49.237Z,24.83
2023-04-09T13:24:48.038Z,24.17
2023-04-09T13:29:46.971Z,23.63
2023-04-09T13:34:46.125Z,23.36
2023-04-09T13:39:46.399Z,22.02
2023-04-09T13:44:45.825Z,22.90
2023-04-09T13:49:45.167Z,22.44
2023-04-09T13:54:44.322Z,22.09
2023-04-09T13:59:44.549Z,21.42
2023-04-09T14:04:43.419Z,21.96
2023-04-09T14:09:42.262Z,22.18
2023-04-09T14:14:41.203Z,21.37
2023-04-09T14:19:41.550Z,21.17
2023-04-09T14:24:40.964Z,20.67
2023-04-09T14:29:39.762Z,21.38
2023-04-09T14:34:38.666Z,22.76
2023-04-09T14:39:38.996Z,22.58
2023-04-09T14:44:37.968Z,22.17
2023-04-09T14:49:39.117Z,22.03
2023-04-09T14:54:39.745Z,21.59
2023-04-09T14:59:38.602Z,21.03
2023-04-09T15:04:37.713Z,21.14
2023-04-09T15:09:38.801Z,20.85
2023-04-09T15:14:41.559Z,20.36
2023-04-09T15:19:40.433Z,21.22
2023-04-09T15:24:39.719Z,21.67
2023-04-09T15:29:40.057Z,21.31
2023-04-09T15:34:39.014Z,21.90
2023-04-09T15:39:39.046Z,20.94
2023-04-09T15:44:39.330Z,21.45
2023-04-09T15:49:38.045Z,21.87
2023-04-09T15:54:37.189Z,21.96
2023-04-09T15:59:36.080Z,22.78
2023-04-09T16:04:39.539Z,23.02
2023-04-09T16:09:38.501Z,23.95
2023-04-09T16:14:37.343Z,33.04
2023-04-09T16:19:36.096Z,32.52
2023-04-09T16:24:36.505Z,27.09
2023-04-09T16:29:35.640Z,32.75
2023-04-09T16:34:34.499Z,33.12
2023-04-09T16:39:35.671Z,37.37
2023-04-09T16:44:35.995Z,38.02
2023-04-09T16:49:34.820Z,39.50
2023-04-09T16:54:33.659Z,31.15
2023-04-09T16:59:32.639Z,30.00
2023-04-09T17:04:34.559Z,30.64
2023-04-09T17:09:33.352Z,31.33
2023-04-09T17:14:33.850Z,32.33
2023-04-09T17:19:34.212Z,33.04
2023-04-09T17:24:36.883Z,34.17
2023-04-09T17:29:35.752Z,34.32
2023-04-09T17:34:38.105Z,34.47
2023-04-09T17:39:37.021Z,35.56
2023-04-09T17:44:35.868Z,35.78
2023-04-09T17:49:39.483Z,36.29
2023-04-09T17:54:38.842Z,36.76
2023-04-09T17:59:38.271Z,37.15
2023-04-09T18:04:38.727Z,37.45
2023-04-09T18:09:39.247Z,37.44
2023-04-09T18:14:38.011Z,38.26
2023-04-09T18:19:38.184Z,38.19
2023-04-09T18:24:37.222Z,38.14
2023-04-09T18:29:36.422Z,38.96
2023-04-09T18:34:35.391Z,39.24
2023-04-09T18:39:37.672Z,39.42
2023-04-09T18:44:37.762Z,39.58
2023-04-09T18:49:36.931Z,40.07
2023-04-09T18:54:37.506Z,40.45
2023-04-09T18:59:36.276Z,40.49
2023-04-09T19:04:39.545Z,40.86
2023-04-09T19:09:41.801Z,41.14
2023-04-09T19:14:40.695Z,41.28
2023-04-09T19:19:39.467Z,41.63
2023-04-09T19:24:39.817Z,41.57
2023-04-09T19:29:38.783Z,41.63
2023-04-09T19:34:37.444Z,41.96
2023-04-09T19:39:36.089Z,42.06
2023-04-09T19:44:36.231Z,42.32
2023-04-09T19:49:35.020Z,43.36
2023-04-09T19:54:34.660Z,43.67
2023-04-09T19:59:36.403Z,43.67
2023-04-09T20:04:36.560Z,43.66
2023-04-09T20:09:36.971Z,43.77
2023-04-09T20:14:35.695Z,44.29
2023-04-09T20:19:34.464Z,44.74
2023-04-09T20:24:35.465Z,44.41
2023-04-09T20:29:34.189Z,44.93
2023-04-09T20:34:33.139Z,44.70
2023-04-09T20:39:31.885Z,44.71
2023-04-09T20:44:32.087Z,44.60
2023-04-09T20:49:31.845Z,44.44
2023-04-09T20:54:30.992Z,44.42
2023-04-09T20:59:31.202Z,44.24
2023-04-09T21:04:30.381Z,44.31
2023-04-09T21:09:29.401Z,44.27
2023-04-09T21:14:28.146Z,45.30
2023-04-09T21:19:28.263Z,45.31
2023-04-09T21:24:27.935Z,45.37
2023-04-09T21:29:27.525Z,45.04
2023-04-09T21:34:27.667Z,45.36
2023-04-09T21:39:26.338Z,45.82
2023-04-09T21:44:25.187Z,46.61
2023-04-09T21:49:24.076Z,46.45
2023-04-09T21:54:24.135Z,46.46
2023-04-09T21:59:23.060Z,46.78
2023-04-09T22:04:21.963Z,47.23
2023-04-09T22:09:20.797Z,47.23
2023-04-09T22:14:21.257Z,47.18
2023-04-09T22:19:19.954Z,47.29
2023-04-09T22:24:19.480Z,48.94
2023-04-09T22:29:18.197Z,49.77
2023-04-09T22:34:21.320Z,49.77
2023-04-09T22:39:21.584Z,50.19
2023-04-09T22:44:20.492Z,49.75
2023-04-09T22:49:20.647Z,49.65
2023-04-09T22:54:19.828Z,49.43
2023-04-09T22:59:19.943Z,50.69
2023-04-09T23:04:25.279Z,51.60
2023-04-09T23:09:24.070Z,51.84
2023-04-09T23:14:22.807Z,51.42
2023-04-09T23:19:22.945Z,51.44
2023-04-09T23:24:21.615Z,51.28
2023-04-09T23:29:20.564Z,51.05
2023-04-09T23:34:19.323Z,50.61
2023-04-09T23:39:19.394Z,50.27
2023-04-09T23:44:18.176Z,50.62
2023-04-09T23:49:17.010Z,50.68
2023-04-09T23:54:15.766Z,51.10
2023-04-09T23:59:16.034Z,50.54
